Time;durP1;ratioP1;P1;durP2;ratioP2;P2;SDS_P1;SDS_P2;PMS_P1;PMS_P2;Temp;Humidity;BMP_temperature;BMP_pressure;BME280_temperature;BME280_humidity;BME280_pressure;Samples;Min_cycle;Max_cycle;Signal;HPM_P1;HPM_P2
2022/04/25 00:02:10;;;;;;;18.10;8.40;;;;;;;12.54;68.31;99085.36;25142;1315;3027014;-67
2022/04/25 00:04:40;;;;;;;13.00;7.00;;;;;;;13.05;68.15;99084.73;25192;1315;3028510;-67
2022/04/25 00:07:13;;;;;;;21.50;9.40;;;;;;;13.56;67.18;99089.34;25166;1315;3026618;-67
2022/04/25 00:09:45;;;;;;;19.90;8.20;;;;;;;13.64;66.67;99098.30;25119;1313;3027398;-68
2022/04/25 00:12:19;;;;;;;26.20;9.00;;;;;;;13.43;66.83;99099.32;25212;1315;3027721;-69
2022/04/25 00:14:53;;;;;;;23.80;10.50;;;;;;;13.19;67.15;99100.33;25108;1315;3052436;-66
2022/04/25 00:17:30;;;;;;;23.00;11.40;;;;;;;12.98;67.37;99097.69;25163;1315;3055922;-66
2022/04/25 00:20:15;;;;;;;23.90;11.80;;;;;;;12.76;67.88;99097.79;25185;1315;3051350;-68
2022/04/25 00:22:48;;;;;;;23.80;11.30;;;;;;;12.59;68.16;99099.61;25192;1314;3026677;-67
2022/04/25 00:25:19;;;;;;;26.20;11.60;;;;;;;12.40;68.71;99093.40;25124;1315;3026602;-66
2022/04/25 00:27:56;;;;;;;15.20;7.10;;;;;;;12.31;69.17;99091.79;25197;1315;3052991;-68
2022/04/25 00:30:33;;;;;;;27.50;8.10;;;;;;;12.91;68.79;99091.70;25210;1315;3054029;-68
2022/04/25 00:33:09;;;;;;;23.70;10.00;;;;;;;13.47;67.51;99094.35;25126;1315;3056744;-68
2022/04/25 00:35:52;;;;;;;25.90;10.80;;;;;;;13.48;67.06;99089.12;25217;1315;3052642;-68
2022/04/25 00:38:26;;;;;;;21.00;9.20;;;;;;;13.29;67.40;99089.89;25157;1315;3055379;-66
2022/04/25 00:40:56;;;;;;;29.60;10.20;;;;;;;13.08;67.53;99095.33;25138;1315;3027042;-67
2022/04/25 00:43:31;;;;;;;18.00;9.20;;;;;;;12.86;67.70;99097.52;25138;1315;3026427;-68
2022/04/25 00:46:06;;;;;;;27.90;10.30;;;;;;;12.67;68.10;99102.66;25118;1315;3026886;-67
2022/04/25 00:48:46;;;;;;;25.50;10.60;;;;;;;12.51;68.41;99101.77;25102;1315;3053006;-68
2022/04/25 00:51:26;;;;;;;22.80;11.50;;;;;;;12.38;68.61;99103.75;25171;1315;3052977;-67
2022/04/25 00:53:59;;;;;;;21.10;7.50;;;;;;;12.29;68.80;99108.79;25215;1317;3058037;-68
2022/04/25 00:56:30;;;;;;;17.90;8.40;;;;;;;12.85;69.09;99109.57;25088;1317;3030265;-68
2022/04/25 00:59:02;;;;;;;28.50;11.60;;;;;;;13.39;68.17;99111.67;25157;1315;3026624;-70
2022/04/25 01:01:32;;;;;;;25.10;10.60;;;;;;;13.42;67.59;99102.06;25176;1315;3027233;-69
2022/04/25 01:04:04;;;;;;;19.70;9.10;;;;;;;13.25;67.71;99102.46;25099;1317;3026619;-68
2022/04/25 01:06:35;;;;;;;26.90;9.80;;;;;;;12.98;67.80;99103.35;25148;1315;3028782;-67
2022/04/25 01:09:09;;;;;;;21.70;9.70;;;;;;;12.68;68.64;99103.65;25203;1315;3028090;-68
2022/04/25 01:11:41;;;;;;;25.00;10.90;;;;;;;12.43;68.95;99103.02;25103;1316;3026558;-67
2022/04/25 01:14:20;;;;;;;24.50;9.80;;;;;;;12.22;69.52;99102.84;25085;1315;3057173;-67
2022/04/25 01:16:51;;;;;;;24.60;12.30;;;;;;;11.96;70.62;99096.95;25100;1315;3029810;-67
2022/04/25 01:19:24;;;;;;;21.80;8.00;;;;;;;11.86;70.85;99089.73;25135;1318;3026410;-67
2022/04/25 01:22:00;;;;;;;23.80;8.50;;;;;;;12.39;70.31;99087.72;25173;1315;3051376;-68
2022/04/25 01:27:42;;;;;;;19.10;8.20;;;;;;;12.86;68.55;99082.95;24977;1318;3052083;-68
2022/04/25 01:30:32;;;;;;;20.50;8.50;;;;;;;12.75;68.29;99083.64;25131;1317;3053213;-68
2022/04/25 01:33:07;;;;;;;22.20;8.60;;;;;;;12.57;68.36;99085.83;25185;1318;3026578;-66
2022/04/25 01:35:40;;;;;;;23.10;9.80;;;;;;;12.24;69.37;99087.41;25149;1318;3056848;-68
2022/04/25 01:38:36;;;;;;;21.60;9.90;;;;;;;11.90;70.70;99082.48;25112;1314;3026450;-67
2022/04/25 01:41:06;;;;;;;28.80;11.00;;;;;;;11.49;72.35;99093.79;25138;1314;3053843;-67
2022/04/25 01:43:37;;;;;;;19.00;9.20;;;;;;;11.26;73.66;99096.77;25152;1318;3027046;-66
2022/04/25 01:46:13;;;;;;;24.70;9.20;;;;;;;11.54;73.12;99097.67;25113;1315;3026651;-67
2022/04/25 01:48:51;;;;;;;27.00;11.80;;;;;;;11.74;72.27;99097.05;25377;1314;3051618;-67
2022/04/25 01:51:33;;;;;;;29.70;13.80;;;;;;;11.83;72.04;99096.66;25403;1315;3052571;-67
2022/04/25 01:54:03;;;;;;;24.80;12.60;;;;;;;11.45;72.89;99102.66;25237;1318;3053884;-66
2022/04/25 01:56:36;;;;;;;33.80;14.50;;;;;;;11.25;73.81;99100.17;25130;1315;3028676;-68
2022/04/25 01:59:11;;;;;;;31.50;14.60;;;;;;;10.89;75.33;99101.39;25096;1314;3052223;-67
2022/04/25 02:01:54;;;;;;;28.40;14.10;;;;;;;10.75;76.34;99097.93;25207;1316;3026485;-67
2022/04/25 02:04:43;;;;;;;18.60;8.90;;;;;;;10.73;76.86;99101.39;25203;1315;3050880;-68
2022/04/25 02:07:29;;;;;;;;;;;;;;;11.29;75.02;99102.14;25180;1316;3069552;-67
2022/04/25 02:09:59;;;;;;;29.70;12.10;;;;;;;11.62;73.04;99100.08;25194;1315;3051220;-68
2022/04/25 02:12:32;;;;;;;28.20;12.50;;;;;;;11.43;73.59;99103.31;25163;1315;3030325;-67
2022/04/25 02:15:12;;;;;;;26.80;12.10;;;;;;;11.25;74.30;99104.21;25065;1317;3053096;-67
2022/04/25 02:17:53;;;;;;;24.70;12.50;;;;;;;11.17;74.37;99103.19;25098;1312;3056890;-66
2022/04/25 02:20:23;;;;;;;33.90;13.10;;;;;;;10.99;75.14;99099.68;25129;1315;3051434;-68
2022/04/25 02:22:53;;;;;;;19.30;9.70;;;;;;;10.88;75.76;99105.14;25200;1316;3026112;-67
2022/04/25 02:25:23;;;;;;;23.60;11.30;;;;;;;11.25;74.93;99097.33;25120;1317;3026906;-69
2022/04/25 02:27:54;;;;;;;26.40;11.30;;;;;;;11.67;73.24;99096.37;25212;1315;3027010;-66
2022/04/25 02:30:27;;;;;;;26.40;11.20;;;;;;;11.78;72.77;99092.77;25192;1315;3052572;-67
2022/04/25 02:32:59;;;;;;;29.20;11.00;;;;;;;11.71;72.54;99091.67;25161;1318;3030524;-68
2022/04/25 02:35:32;;;;;;;22.40;11.20;;;;;;;11.53;72.78;99094.20;25076;1316;3026015;-66
2022/04/25 02:38:03;;;;;;;19.50;9.80;;;;;;;11.37;72.84;99093.92;25112;1314;3027171;-67
2022/04/25 02:40:33;;;;;;;21.30;10.80;;;;;;;11.34;72.81;99094.25;25146;1315;3028931;-67
2022/04/25 02:43:11;;;;;;;9.60;5.70;;;;;;;11.36;72.05;99092.59;25115;1315;3027132;-67
2022/04/25 02:45:53;;;;;;;16.20;4.70;;;;;;;11.99;70.92;99086.56;25097;1315;3053871;-67
2022/04/25 02:48:29;;;;;;;17.90;6.70;;;;;;;12.59;69.26;99084.98;25129;1315;3068147;-66
2022/04/25 02:51:02;;;;;;;13.30;6.10;;;;;;;12.63;68.36;99088.71;25094;1316;3048880;-66
2022/04/25 02:53:38;;;;;;;17.80;7.60;;;;;;;12.54;68.42;99090.08;25207;1318;3027325;-67
2022/04/25 02:56:13;;;;;;;16.90;7.90;;;;;;;12.33;68.61;99097.59;25167;1315;3052829;-68
2022/04/25 02:58:48;;;;;;;11.80;7.40;;;;;;;12.16;69.22;99095.87;25144;1315;3057286;-66
2022/04/25 03:01:25;;;;;;;15.50;7.20;;;;;;;12.00;69.21;99097.18;25065;1315;3026571;-66
2022/04/25 03:04:07;;;;;;;12.70;6.10;;;;;;;11.90;68.75;99095.95;25171;1315;3056044;-66
2022/04/25 03:06:57;;;;;;;12.90;7.20;;;;;;;11.84;68.52;99101.48;25130;1315;3052105;-68
2022/04/25 03:10:04;;;;;;;16.20;7.00;;;;;;;11.81;68.39;99114.51;25147;1316;3068444;-68
2022/04/25 03:12:50;;;;;;;12.30;5.30;;;;;;;11.80;68.98;99120.89;25164;1315;3050222;-66
2022/04/25 03:15:46;;;;;;;11.60;4.10;;;;;;;12.60;67.13;99114.08;25167;1315;3054782;-67
2022/04/25 03:18:44;;;;;;;14.80;5.10;;;;;;;13.13;64.95;99113.27;25126;1315;3053313;-66
2022/04/25 03:21:28;;;;;;;9.30;5.20;;;;;;;13.15;64.44;99118.36;25073;1318;3059308;-66
2022/04/25 03:24:14;;;;;;;12.20;5.80;;;;;;;13.00;64.45;99117.25;25096;1315;3051387;-68
2022/04/25 03:26:57;;;;;;;15.20;6.40;;;;;;;12.77;65.20;99118.08;25083;1318;3053138;-67
2022/04/25 03:29:28;;;;;;;15.20;6.40;;;;;;;12.59;65.86;99115.75;25103;1316;3051614;-66
2022/04/25 03:32:24;;;;;;;17.70;7.50;;;;;;;12.40;66.94;99121.02;25077;1318;3068705;-67
2022/04/25 03:35:16;;;;;;;18.10;7.90;;;;;;;12.27;67.44;99127.96;25082;1318;3049429;-67
2022/04/25 03:37:56;;;;;;;17.30;7.90;;;;;;;12.10;67.83;99132.67;25174;1315;3052374;-68
2022/04/25 03:40:32;;;;;;;17.70;7.10;;;;;;;11.96;67.69;99128.58;25099;1315;3056250;-68
2022/04/25 03:43:07;;;;;;;14.00;6.10;;;;;;;11.93;66.88;99129.48;25144;1315;3059412;-67
2022/04/25 03:46:02;;;;;;;19.30;6.20;;;;;;;11.92;66.66;99130.23;25103;1317;3052720;-66
2022/04/25 03:48:44;;;;;;;14.00;6.30;;;;;;;11.90;66.34;99123.30;25178;1315;3055814;-68
2022/04/25 03:51:26;;;;;;;14.10;5.90;;;;;;;11.88;66.34;99124.36;25115;1315;3051248;-67
2022/04/25 03:54:10;;;;;;;19.60;7.40;;;;;;;11.80;67.01;99122.31;25130;1316;3071203;-67
2022/04/25 03:59:50;;;;;;;15.90;5.30;;;;;;;12.59;67.18;99117.99;25124;1317;3054135;-67
2022/04/25 04:02:25;;;;;;;17.50;7.60;;;;;;;13.29;65.77;99116.42;25078;1315;3053149;-67
2022/04/25 04:05:09;;;;;;;19.60;7.90;;;;;;;13.41;64.94;99117.95;25169;1318;3055066;-68
2022/04/25 04:08:20;;;;;;;15.50;7.70;;;;;;;13.32;64.78;99119.86;25061;1315;3049561;-67
2022/04/25 04:10:52;;;;;;;14.00;7.30;;;;;;;13.17;64.24;99118.55;25102;1318;3055807;-67
2022/04/25 04:13:26;;;;;;;13.80;7.00;;;;;;;13.03;64.58;99118.09;25099;1315;3026202;-68
2022/04/25 04:16:06;;;;;;;12.90;7.00;;;;;;;12.93;64.70;99116.16;25104;1317;3072371;-67
2022/04/25 04:18:41;;;;;;;13.00;6.50;;;;;;;12.85;64.26;99115.17;25141;1315;3050368;-66
2022/04/25 04:21:14;;;;;;;17.20;7.70;;;;;;;12.81;64.47;99118.52;25156;1318;3026872;-67
2022/04/25 04:23:49;;;;;;;15.40;7.20;;;;;;;12.81;64.06;99120.27;25130;1315;3052653;-67
2022/04/25 04:26:33;;;;;;;14.70;7.10;;;;;;;12.78;64.09;99126.29;25225;1315;3058195;-67
2022/04/25 04:29:06;;;;;;;14.40;5.80;;;;;;;12.74;64.09;99124.64;25166;1315;3052138;-67
2022/04/25 04:31:39;;;;;;;12.20;6.10;;;;;;;12.72;63.77;99121.96;25158;1315;3053397;-68
2022/04/25 04:34:13;;;;;;;11.30;5.80;;;;;;;12.72;63.55;99126.34;25179;1315;3027024;-67
2022/04/25 04:36:43;;;;;;;11.60;7.10;;;;;;;12.74;63.53;99126.88;25169;1316;3026534;-67
2022/04/25 04:39:21;;;;;;;14.50;6.60;;;;;;;12.76;63.63;99130.27;25142;1315;3026651;-68
2022/04/25 04:41:52;;;;;;;12.40;6.40;;;;;;;12.79;63.34;99128.47;25169;1315;3054790;-68
2022/04/25 04:44:28;;;;;;;13.40;6.30;;;;;;;12.84;63.23;99129.88;25053;1318;3026600;-66
2022/04/25 04:47:03;;;;;;;11.30;6.00;;;;;;;12.87;63.04;99124.59;25168;1318;3026862;-69
2022/04/25 04:50:14;;;;;;;16.00;7.80;;;;;;;12.89;63.10;99127.16;25078;1316;3051028;-67
2022/04/25 04:56:19;;;;;;;16.80;8.90;;;;;;;13.00;63.10;99123.77;25042;1321;3051393;-67
2022/04/25 04:58:54;;;;;;;15.00;8.80;;;;;;;13.01;63.20;99127.69;25110;1318;3069948;-67
2022/04/25 05:01:34;;;;;;;16.90;9.40;;;;;;;13.03;63.09;99126.02;25077;1316;3052088;-66
2022/04/25 05:04:07;;;;;;;14.60;9.20;;;;;;;13.05;62.98;99131.59;25093;1315;3028281;-68
2022/04/25 05:07:02;;;;;;;20.20;9.40;;;;;;;13.10;63.06;99134.23;25155;1315;3026924;-67
2022/04/25 05:09:38;;;;;;;20.80;8.90;;;;;;;13.15;62.88;99139.82;25191;1315;3059113;-67
2022/04/25 05:12:11;;;;;;;16.50;8.70;;;;;;;13.20;62.68;99139.61;25122;1318;3028797;-66
2022/04/25 05:14:43;;;;;;;15.50;8.30;;;;;;;13.24;62.23;99140.20;25202;1318;3052392;-68
2022/04/25 05:17:13;;;;;;;15.40;8.50;;;;;;;13.28;62.13;99138.82;25134;1315;3026636;-68
2022/04/25 05:19:44;;;;;;;16.60;8.40;;;;;;;13.35;62.02;99141.33;25180;1315;3026459;-66
2022/04/25 05:22:15;;;;;;;16.40;8.30;;;;;;;13.40;62.04;99137.61;25107;1315;3027620;-67
2022/04/25 05:24:48;;;;;;;14.60;8.10;;;;;;;13.46;61.69;99135.42;25121;1315;3030062;-67
2022/04/25 05:27:18;;;;;;;14.90;7.90;;;;;;;13.56;61.79;99139.92;25135;1315;3026758;-68
2022/04/25 05:29:48;;;;;;;19.80;9.40;;;;;;;13.62;61.81;99141.73;25142;1317;3026513;-67
2022/04/25 05:32:20;;;;;;;16.10;8.30;;;;;;;13.67;61.96;99141.16;25179;1315;3026955;-66
2022/04/25 05:34:49;;;;;;;13.90;7.70;;;;;;;13.72;61.71;99141.44;25172;1316;3026817;-67
2022/04/25 05:37:21;;;;;;;13.90;7.70;;;;;;;13.78;61.16;99141.50;23781;1318;6989771;-68
2022/04/25 05:39:58;;;;;;;15.20;8.50;;;;;;;14.04;60.76;99141.91;25078;1315;3051554;-67
2022/04/25 05:42:44;;;;;;;7.80;5.60;;;;;;;14.24;58.40;99134.98;25124;1315;3055482;-66
2022/04/25 05:45:52;;;;;;;14.90;6.80;;;;;;;14.22;59.00;99138.76;25144;1318;3053830;-67
2022/04/25 05:54:43;;;;;;;12.50;4.60;;;;;;;14.25;57.95;99137.06;25151;1319;3052095;-68
2022/04/25 05:57:53;;;;;;;11.20;4.40;;;;;;;14.26;56.82;99138.21;25117;1318;3053114;-67
2022/04/25 06:01:14;;;;;;;10.10;4.70;;;;;;;14.32;57.14;99139.70;25220;1316;3058588;-66
2022/04/25 06:08:04;;;;;;;12.80;4.90;;;;;;;14.46;57.25;99140.46;25119;1318;3052245;-68
2022/04/25 06:10:40;;;;;;;12.80;4.60;;;;;;;14.49;56.81;99139.73;25182;1316;3054182;-66
2022/04/25 06:17:19;;;;;;;7.90;4.30;;;;;;;14.61;56.23;99140.68;25048;1315;3050274;-66
2022/04/25 06:20:10;;;;;;;6.60;3.80;;;;;;;14.69;55.36;99140.41;25052;1318;3053342;-68
2022/04/25 06:23:31;;;;;;;11.30;3.90;;;;;;;14.75;54.64;99138.30;25124;1315;3055263;-67
2022/04/25 06:26:13;;;;;;;5.80;3.30;;;;;;;14.79;54.02;99136.37;25161;1315;3059415;-67
2022/04/25 06:29:35;;;;;;;6.00;3.40;;;;;;;14.87;54.26;99133.08;25157;1315;3050052;-69
2022/04/25 06:32:37;;;;;;;7.20;3.50;;;;;;;14.94;54.38;99128.80;25120;1314;3054084;-67
2022/04/25 06:35:23;;;;;;;7.70;3.90;;;;;;;14.99;54.53;99131.60;25100;1315;3051467;-67
2022/04/25 06:38:05;;;;;;;4.70;3.30;;;;;;;15.01;53.58;99133.52;25113;1315;3071889;-66
2022/04/25 06:40:42;;;;;;;6.50;3.10;;;;;;;15.00;53.04;99130.72;25092;1315;3051943;-70
2022/04/25 06:43:14;;;;;;;5.10;3.50;;;;;;;15.12;52.96;99133.10;25175;1315;3052628;-68
2022/04/25 06:45:46;;;;;;;8.80;4.00;;;;;;;15.15;53.00;99134.40;25130;1315;3026484;-67
2022/04/25 06:48:16;;;;;;;5.90;3.60;;;;;;;15.23;53.85;99137.44;25097;1316;3030211;-68
2022/04/25 06:50:46;;;;;;;10.00;4.00;;;;;;;15.29;53.85;99140.27;25157;1317;3026459;-67
2022/04/25 06:53:20;;;;;;;14.70;4.30;;;;;;;15.39;53.71;99140.70;25101;1315;3051218;-67
2022/04/25 06:55:52;;;;;;;11.60;4.20;;;;;;;15.47;53.74;99141.94;25137;1318;3055109;-69
2022/04/25 07:00:22;;;;;;;7.90;4.40;;;;;;;15.70;53.62;99139.75;31598;1316;3026019;-66
2022/04/25 07:02:53;;;;;;;6.80;4.60;;;;;;;16.06;52.76;99135.59;25021;1319;3026591;-67
2022/04/25 07:05:24;;;;;;;9.00;3.90;;;;;;;16.30;50.44;99128.52;25068;1319;3026367;-68
2022/04/25 07:08:09;;;;;;;5.90;3.20;;;;;;;16.28;50.66;99129.23;25090;1319;3056005;-67
2022/04/25 07:11:03;;;;;;;7.50;3.50;;;;;;;16.31;50.84;99130.21;24991;1319;3048799;-68
2022/04/25 07:13:35;;;;;;;8.10;3.80;;;;;;;16.38;51.13;99131.51;23716;1316;6897869;-67
2022/04/25 07:16:14;;;;;;;10.30;4.10;;;;;;;16.42;50.89;99128.38;25224;1315;3055919;-68
2022/04/25 07:19:12;;;;;;;10.00;4.00;;;;;;;16.48;50.84;99127.48;25135;1316;3049648;-69
2022/04/25 07:30:42;;;;;;;9.40;4.80;;;;;;;16.70;50.97;99133.91;25144;1316;3050449;-68
2022/04/25 07:33:23;;;;;;;12.20;5.20;;;;;;;16.78;50.90;99134.48;25191;1314;3050900;-69
2022/04/25 07:36:09;;;;;;;10.30;4.70;;;;;;;16.64;51.15;99136.23;25167;1316;3055075;-69
2022/04/25 07:38:42;;;;;;;10.60;4.30;;;;;;;16.70;51.55;99133.07;25186;1316;3059346;-68
2022/04/25 07:41:26;;;;;;;12.90;4.30;;;;;;;16.81;51.70;99128.40;25099;1316;3026584;-69
2022/04/25 07:44:05;;;;;;;13.20;4.20;;;;;;;16.90;51.25;99122.89;25182;1316;3053474;-68
2022/04/25 07:46:45;;;;;;;7.80;3.60;;;;;;;16.97;51.47;99123.42;25213;1316;3053418;-70
2022/04/25 07:49:17;;;;;;;10.60;3.90;;;;;;;17.00;51.68;99122.70;25095;1315;3026818;-70
2022/04/25 07:51:49;;;;;;;;;;;;;;;17.04;51.52;99118.25;25101;1316;3047858;-68
2022/04/25 07:54:22;;;;;;;7.00;3.50;;;;;;;17.08;51.74;99120.59;25169;1313;3026669;-67
2022/04/25 07:56:59;;;;;;;10.70;3.90;;;;;;;17.01;52.56;99115.58;25185;1316;3055026;-69
2022/04/25 07:59:36;;;;;;;6.30;3.20;;;;;;;17.05;52.50;99119.11;25167;1315;3058699;-68
2022/04/25 08:02:09;;;;;;;7.90;3.60;;;;;;;17.25;51.78;99115.43;25119;1316;3028512;-68
2022/04/25 08:04:45;;;;;;;6.70;3.20;;;;;;;17.33;51.82;99115.09;25137;1316;3055221;-68
2022/04/25 08:07:20;;;;;;;7.50;3.90;;;;;;;17.42;51.75;99111.73;25188;1316;3052764;-69
2022/04/25 08:09:51;;;;;;;14.80;4.50;;;;;;;17.45;51.42;99113.59;25066;1316;3069166;-65
2022/04/25 08:18:04;;;;;;;11.00;4.40;;;;;;;17.59;51.86;99102.72;25130;1316;3071477;-66
2022/04/25 08:20:36;;;;;;;15.00;4.40;;;;;;;17.68;51.32;99097.75;25122;1316;3050973;-66
2022/04/25 08:23:10;;;;;;;13.80;4.10;;;;;;;17.72;51.23;99095.77;25168;1314;3027831;-65
2022/04/25 08:25:45;;;;;;;10.30;4.20;;;;;;;17.79;51.25;99091.42;25154;1316;3054162;-64
2022/04/25 08:28:19;;;;;;;10.50;4.20;;;;;;;17.87;51.51;99090.39;25144;1313;3026546;-63
2022/04/25 08:30:51;;;;;;;8.20;4.30;;;;;;;18.00;51.43;99087.24;25139;1313;3026552;-65
2022/04/25 08:33:21;;;;;;;8.60;3.90;;;;;;;18.12;50.99;99085.38;25176;1313;3027042;-69
2022/04/25 08:35:52;;;;;;;14.30;4.40;;;;;;;18.26;51.10;99081.15;25147;1313;3026647;-66
2022/04/25 08:38:21;;;;;;;10.30;3.60;;;;;;;18.34;51.22;99076.73;25139;1316;3027020;-65
2022/04/25 08:40:51;;;;;;;8.90;3.90;;;;;;;18.37;50.31;99078.48;25141;1313;3055250;-67
2022/04/25 08:43:22;;;;;;;8.70;3.60;;;;;;;18.48;49.38;99077.81;25166;1313;3026438;-68
2022/04/25 08:45:51;;;;;;;9.80;3.80;;;;;;;18.66;49.78;99073.39;25142;1313;3026661;-65
2022/04/25 08:48:24;;;;;;;9.60;3.10;;;;;;;18.83;48.73;99073.90;25201;1313;3026065;-68
2022/04/25 08:50:53;;;;;;;11.90;3.40;;;;;;;18.93;48.64;99067.30;25166;1314;3026383;-64
2022/04/25 08:53:22;;;;;;;11.80;3.50;;;;;;;18.94;48.28;99066.67;25117;1313;3029843;-69
2022/04/25 08:55:54;;;;;;;10.90;3.90;;;;;;;18.98;47.63;99065.34;25120;1313;3048644;-66
2022/04/25 08:58:27;;;;;;;9.20;4.20;;;;;;;18.96;48.20;99066.48;25145;1313;3028537;-68
2022/04/25 09:00:58;;;;;;;7.50;4.00;;;;;;;18.94;48.59;99063.46;25135;1316;3029214;-66
2022/04/25 09:03:32;;;;;;;5.30;3.10;;;;;;;18.91;48.89;99055.77;25152;1314;3051938;-67
2022/04/25 09:06:03;;;;;;;7.90;3.20;;;;;;;18.96;47.15;99053.61;25143;1313;3026539;-64
2022/04/25 09:08:32;;;;;;;8.20;3.30;;;;;;;19.04;46.87;99048.21;25126;1313;3026333;-63
2022/04/25 09:13:54;;;;;;;8.60;3.00;;;;;;;19.38;46.96;99046.20;25129;1313;3052771;-65
2022/04/25 09:16:24;;;;;;;7.30;2.70;;;;;;;19.50;46.61;99038.06;25144;1316;3027137;-68
2022/04/25 09:18:53;;;;;;;8.30;3.10;;;;;;;19.60;46.76;99035.02;25172;1313;3026024;-67
2022/04/25 09:21:24;;;;;;;8.00;2.90;;;;;;;19.78;46.77;99030.24;25176;1312;3051384;-67
2022/04/25 09:23:54;;;;;;;10.70;3.20;;;;;;;19.93;45.54;99028.34;25132;1313;3026583;-68
2022/04/25 09:26:28;;;;;;;6.30;2.50;;;;;;;20.00;43.43;99031.14;25187;1313;3026103;-68
2022/04/25 09:28:57;;;;;;;;;;;;;;;19.87;42.38;99028.45;25191;1313;3051415;-64
2022/04/25 09:31:29;;;;;;;6.30;2.40;;;;;;;19.71;42.95;99023.66;25112;1313;3026535;-70
2022/04/25 09:34:13;;;;;;;12.90;2.60;;;;;;;19.77;43.48;99021.65;25121;1313;3027259;-65
2022/04/25 09:36:48;;;;;;;5.00;2.90;;;;;;;19.95;43.59;99021.58;25090;1313;3069644;-68
2022/04/25 09:39:28;;;;;;;8.20;3.50;;;;;;;20.12;43.27;99021.15;25166;1313;3048299;-65
2022/04/25 09:41:59;;;;;;;11.70;3.10;;;;;;;20.23;43.00;99010.23;25192;1313;3052309;-69
2022/04/25 09:44:32;;;;;;;7.90;2.60;;;;;;;20.07;43.15;99011.23;25180;1312;3029393;-66
2022/04/25 09:47:02;;;;;;;12.40;2.70;;;;;;;20.12;43.41;99011.02;25148;1312;3026622;-67
2022/04/25 09:49:31;;;;;;;7.00;3.00;;;;;;;20.12;44.69;99013.00;25158;1313;3027177;-64
2022/04/25 09:52:01;;;;;;;7.40;2.60;;;;;;;20.19;44.74;99007.02;25145;1312;3026210;-66
2022/04/25 09:54:33;;;;;;;8.80;3.30;;;;;;;20.24;44.53;99005.96;25163;1315;3056546;-68
2022/04/25 09:57:03;;;;;;;8.50;3.10;;;;;;;20.42;43.99;99002.79;25148;1313;3026986;-67
2022/04/25 09:59:44;;;;;;;8.90;2.50;;;;;;;20.52;41.49;99007.92;25126;1313;3027010;-65
2022/04/25 10:02:20;;;;;;;8.30;2.50;;;;;;;20.74;40.04;98998.59;25121;1313;3053058;-68
2022/04/25 10:04:49;;;;;;;5.60;2.50;;;;;;;20.91;40.52;98990.16;25156;1315;3026510;-65
2022/04/25 10:07:24;;;;;;;6.20;2.70;;;;;;;21.14;40.71;98993.89;25166;1312;3028592;-68
2022/04/25 10:09:55;;;;;;;7.20;2.80;;;;;;;21.15;39.18;98991.58;25164;1313;3054058;-66
2022/04/25 10:12:25;;;;;;;9.50;2.40;;;;;;;21.00;38.24;98989.89;25115;1313;3026870;-65
2022/04/25 10:14:54;;;;;;;4.60;2.10;;;;;;;21.18;38.71;98989.66;25166;1313;3027188;-67
2022/04/25 10:17:23;;;;;;;5.60;2.80;;;;;;;21.40;38.29;98989.46;25176;1313;3054735;-68
2022/04/25 10:19:54;;;;;;;7.30;2.50;;;;;;;21.52;37.77;98991.27;25255;1313;3028930;-69
2022/04/25 10:22:23;;;;;;;6.90;2.80;;;;;;;21.41;39.87;98994.59;25319;1316;3027100;-65
2022/04/25 10:24:53;;;;;;;7.70;2.80;;;;;;;21.61;39.12;98983.56;25295;1313;3026781;-66
2022/04/25 10:27:27;;;;;;;6.10;2.60;;;;;;;21.73;38.64;98982.39;25124;1316;3026449;-69
2022/04/25 10:29:56;;;;;;;6.10;2.20;;;;;;;21.88;38.19;98974.67;25152;1313;3050929;-68
2022/04/25 10:32:25;;;;;;;6.60;2.40;;;;;;;21.96;38.23;98976.35;25167;1313;3026854;-65
2022/04/25 10:34:59;;;;;;;7.70;2.50;;;;;;;22.12;38.59;98975.55;25168;1313;3026601;-66
2022/04/25 10:37:43;;;;;;;6.50;2.90;;;;;;;22.34;38.58;98970.93;25118;1313;3028795;-67
2022/04/25 10:40:17;;;;;;;6.40;2.50;;;;;;;22.49;37.96;98969.54;25162;1313;3052093;-67
2022/04/25 10:46:24;;;;;;;9.30;2.20;;;;;;;22.54;36.81;98967.69;25122;1313;3052316;-68
2022/04/25 10:49:03;;;;;;;4.00;1.90;;;;;;;22.59;36.92;98963.95;25118;1316;3029816;-69
2022/04/25 10:51:39;;;;;;;7.70;2.50;;;;;;;22.67;36.60;98955.02;25134;1313;3057225;-69
2022/04/25 10:54:09;;;;;;;7.80;3.10;;;;;;;22.77;36.92;98955.95;25133;1313;3052408;-69
2022/04/25 10:56:58;;;;;;;7.60;2.70;;;;;;;22.84;36.68;98954.67;25164;1313;3026164;-69
2022/04/25 10:59:31;;;;;;;5.10;2.00;;;;;;;22.78;36.02;98946.08;25166;1316;3056887;-69
2022/04/25 11:02:00;;;;;;;5.10;2.20;;;;;;;22.76;35.34;98948.90;25135;1313;3026337;-66
2022/04/25 11:04:29;;;;;;;7.90;2.70;;;;;;;22.86;35.88;98952.25;25147;1315;3055396;-66
2022/04/25 11:07:23;;;;;;;9.90;2.20;;;;;;;22.60;35.83;98953.43;25139;1316;3027036;-67
2022/04/25 11:09:52;;;;;;;6.90;2.50;;;;;;;22.43;35.89;98951.65;25140;1316;3052769;-68
2022/04/25 11:12:56;;;;;;;7.30;2.40;;;;;;;22.54;36.40;98948.88;25170;1313;3026475;-68
2022/04/25 11:15:45;;;;;;;7.10;2.60;;;;;;;22.85;36.47;98943.95;25182;1313;3051745;-68
2022/04/25 11:18:40;;;;;;;7.20;2.30;;;;;;;23.05;35.86;98939.99;25108;1313;3069888;-68
2022/04/25 11:21:14;;;;;;;3.70;2.10;;;;;;;23.04;35.80;98941.80;25159;1313;3049168;-67
2022/04/25 11:23:43;;;;;;;;;;;;;;;23.24;34.75;98938.41;25211;1313;3055604;-68
2022/04/25 11:26:22;;;;;;;4.20;2.00;;;;;;;23.24;34.72;98930.83;25162;1313;3026732;-69
2022/04/25 11:28:55;;;;;;;4.20;1.90;;;;;;;23.48;35.16;98926.14;25204;1313;3058617;-68
2022/04/25 11:31:25;;;;;;;;;;;;;;;23.57;35.07;98928.33;25171;1313;3052211;-67
2022/04/25 11:33:57;;;;;;;4.50;2.10;;;;;;;23.80;34.78;98930.70;25173;1316;3026250;-66
2022/04/25 11:36:26;;;;;;;5.60;2.50;;;;;;;24.00;33.80;98929.55;25173;1313;3028275;-70
2022/04/25 11:41:46;;;;;;;5.80;2.50;;;;;;;23.38;33.64;98928.23;25149;1313;3055599;-70
2022/04/25 11:44:16;;;;;;;4.50;2.20;;;;;;;23.30;33.93;98925.00;25177;1315;3026690;-68
2022/04/25 11:46:46;;;;;;;8.70;2.40;;;;;;;23.23;34.05;98926.40;25133;1313;3026409;-70
2022/04/25 11:49:29;;;;;;;4.70;2.50;;;;;;;23.30;34.27;98919.67;25142;1313;3055497;-69
2022/04/25 11:52:01;;;;;;;7.40;2.20;;;;;;;23.62;33.97;98914.86;25097;1316;3051522;-71
2022/04/25 11:54:32;;;;;;;3.50;2.10;;;;;;;23.73;33.32;98914.50;25164;1312;3026972;-69
2022/04/25 11:57:02;;;;;;;6.20;2.00;;;;;;;23.92;33.57;98913.71;25146;1316;3026490;-69
2022/04/25 11:59:33;;;;;;;8.10;2.40;;;;;;;24.19;33.28;98914.02;25168;1313;3027437;-70
2022/04/25 12:02:02;;;;;;;5.10;2.10;;;;;;;24.28;32.55;98915.16;25132;1313;3026983;-69
2022/04/25 12:04:35;;;;;;;5.00;2.10;;;;;;;23.97;33.43;98911.40;25240;1313;3051357;-70
2022/04/25 12:07:08;;;;;;;5.60;2.00;;;;;;;23.92;33.42;98911.27;25159;1313;3053921;-70
2022/04/25 12:15:40;;;;;;;6.00;2.10;;;;;;;23.92;32.63;98900.88;25119;1313;3049774;-71
2022/04/25 12:18:23;;;;;;;6.10;2.20;;;;;;;23.84;32.86;98896.70;25194;1313;3054742;-71
2022/04/25 12:21:08;;;;;;;4.30;1.80;;;;;;;23.93;32.90;98898.07;25142;1313;3054310;-71
2022/04/25 12:23:50;;;;;;;7.40;2.10;;;;;;;24.14;32.61;98890.79;25187;1313;3071538;-69
2022/04/25 12:26:29;;;;;;;6.00;1.90;;;;;;;24.07;32.32;98900.09;25164;1312;3049099;-69
2022/04/25 12:29:11;;;;;;;6.00;2.00;;;;;;;23.45;33.01;98897.07;25195;1313;3053394;-70
2022/04/25 12:31:47;;;;;;;8.90;2.50;;;;;;;23.37;33.29;98895.55;25177;1313;3054048;-68
2022/04/25 12:34:19;;;;;;;5.60;2.20;;;;;;;23.70;32.85;98894.55;25150;1313;3056912;-69
2022/04/25 12:36:55;;;;;;;5.30;2.10;;;;;;;23.63;33.09;98893.21;25186;1311;3027830;-71
2022/04/25 12:39:28;;;;;;;15.70;2.80;;;;;;;23.49;33.50;98891.58;25179;1313;3055966;-69
2022/04/25 12:41:58;;;;;;;8.90;3.00;;;;;;;23.49;33.39;98893.16;25169;1313;3029168;-71
2022/04/25 12:44:31;;;;;;;8.20;2.70;;;;;;;23.67;32.72;98882.65;25160;1313;3068358;-68
2022/04/25 12:47:04;;;;;;;6.90;3.30;;;;;;;23.71;32.68;98882.05;25178;1313;3027148;-69
2022/04/25 12:49:37;;;;;;;9.10;3.10;;;;;;;23.60;32.79;98875.40;25138;1312;3051700;-67
2022/04/25 12:52:07;;;;;;;5.30;3.20;;;;;;;23.98;32.37;98870.52;25136;1313;3026638;-70